sensor_id;sensor_type;location;lat;lon;timestamp;P1;durP1;ratioP1;P2;durP2;ratioP2
82646;SDS011;72325;41.910;22.404;2024-03-23T00:55:10;38.63;;;18.42;;
82646;SDS011;72325;41.910;22.404;2024-03-23T01:00:40;37.20;;;17.08;;
82646;SDS011;72325;41.910;22.404;2024-03-23T01:03:06;38.38;;;18.17;;
82646;SDS011;72325;41.910;22.404;2024-03-23T01:05:32;31.88;;;15.68;;
82646;SDS011;72325;41.910;22.404;2024-03-23T01:07:58;33.65;;;16.55;;
82646;SDS011;72325;41.910;22.404;2024-03-23T01:10:24;30.35;;;15.98;;
82646;SDS011;72325;41.910;22.404;2024-03-23T01:12:51;37.42;;;18.40;;
82646;SDS011;72325;41.910;22.404;2024-03-23T01:15:17;25.63;;;12.77;;
82646;SDS011;72325;41.910;22.404;2024-03-23T01:17:43;23.55;;;12.13;;
82646;SDS011;72325;41.910;22.404;2024-03-23T01:20:09;27.90;;;15.13;;
82646;SDS011;72325;41.910;22.404;2024-03-23T01:22:35;30.48;;;15.73;;
82646;SDS011;72325;41.910;22.404;2024-03-23T01:25:01;25.67;;;14.55;;
82646;SDS011;72325;41.910;22.404;2024-03-23T01:30:30;29.63;;;14.95;;
82646;SDS011;72325;41.910;22.404;2024-03-23T01:32:56;12.63;;;7.90;;
82646;SDS011;72325;41.910;22.404;2024-03-23T01:35:22;11.18;;;6.18;;
82646;SDS011;72325;41.910;22.404;2024-03-23T01:37:49;12.20;;;6.30;;
82646;SDS011;72325;41.910;22.404;2024-03-23T01:40:19;11.10;;;6.20;;
82646;SDS011;72325;41.910;22.404;2024-03-23T01:45:49;13.73;;;7.50;;
82646;SDS011;72325;41.910;22.404;2024-03-23T01:48:15;12.55;;;7.28;;
82646;SDS011;72325;41.910;22.404;2024-03-23T01:50:41;11.77;;;6.30;;
82646;SDS011;72325;41.910;22.404;2024-03-23T01:53:07;8.55;;;5.70;;
82646;SDS011;72325;41.910;22.404;2024-03-23T01:55:34;10.45;;;5.38;;
82646;SDS011;72325;41.910;22.404;2024-03-23T01:58:00;9.00;;;6.03;;
82646;SDS011;72325;41.910;22.404;2024-03-23T02:00:27;9.55;;;5.38;;
82646;SDS011;72325;41.910;22.404;2024-03-23T02:02:53;8.25;;;5.15;;
82646;SDS011;72325;41.910;22.404;2024-03-23T02:05:20;9.18;;;5.05;;
82646;SDS011;72325;41.910;22.404;2024-03-23T02:07:46;8.38;;;4.93;;
82646;SDS011;72325;41.910;22.404;2024-03-23T02:10:12;8.50;;;5.13;;
82646;SDS011;72325;41.910;22.404;2024-03-23T02:15:41;8.18;;;5.10;;
82646;SDS011;72325;41.910;22.404;2024-03-23T02:18:08;9.25;;;4.70;;
82646;SDS011;72325;41.910;22.404;2024-03-23T02:20:34;10.25;;;4.90;;
82646;SDS011;72325;41.910;22.404;2024-03-23T02:23:01;16.02;;;5.57;;
82646;SDS011;72325;41.910;22.404;2024-03-23T02:25:27;10.23;;;5.53;;
82646;SDS011;72325;41.910;22.404;2024-03-23T02:31:15;10.52;;;6.57;;
82646;SDS011;72325;41.910;22.404;2024-03-23T02:33:41;11.85;;;6.15;;
82646;SDS011;72325;41.910;22.404;2024-03-23T02:36:07;15.40;;;6.88;;
82646;SDS011;72325;41.910;22.404;2024-03-23T02:38:33;11.00;;;6.00;;
82646;SDS011;72325;41.910;22.404;2024-03-23T02:41:05;10.23;;;6.28;;
82646;SDS011;72325;41.910;22.404;2024-03-23T02:43:31;9.55;;;5.75;;
82646;SDS011;72325;41.910;22.404;2024-03-23T02:45:57;9.30;;;5.60;;
82646;SDS011;72325;41.910;22.404;2024-03-23T02:48:24;12.43;;;5.90;;
82646;SDS011;72325;41.910;22.404;2024-03-23T02:50:51;11.20;;;5.78;;
82646;SDS011;72325;41.910;22.404;2024-03-23T02:53:17;9.25;;;5.82;;
82646;SDS011;72325;41.910;22.404;2024-03-23T02:55:43;11.50;;;6.07;;
82646;SDS011;72325;41.910;22.404;2024-03-23T02:58:09;14.15;;;8.25;;
82646;SDS011;72325;41.910;22.404;2024-03-23T03:00:35;14.80;;;8.48;;
82646;SDS011;72325;41.910;22.404;2024-03-23T03:03:01;18.85;;;9.02;;
82646;SDS011;72325;41.910;22.404;2024-03-23T03:05:28;19.55;;;8.90;;
82646;SDS011;72325;41.910;22.404;2024-03-23T03:07:54;11.80;;;7.65;;
82646;SDS011;72325;41.910;22.404;2024-03-23T03:10:20;13.20;;;7.45;;
82646;SDS011;72325;41.910;22.404;2024-03-23T03:15:50;11.50;;;7.13;;
82646;SDS011;72325;41.910;22.404;2024-03-23T03:18:16;12.82;;;7.13;;
82646;SDS011;72325;41.910;22.404;2024-03-23T03:20:42;11.80;;;7.43;;
82646;SDS011;72325;41.910;22.404;2024-03-23T03:23:09;12.57;;;6.60;;
82646;SDS011;72325;41.910;22.404;2024-03-23T03:25:35;10.95;;;6.70;;
82646;SDS011;72325;41.910;22.404;2024-03-23T03:31:04;9.32;;;6.70;;
82646;SDS011;72325;41.910;22.404;2024-03-23T03:33:30;10.82;;;6.35;;
82646;SDS011;72325;41.910;22.404;2024-03-23T03:35:56;12.85;;;7.05;;
82646;SDS011;72325;41.910;22.404;2024-03-23T03:38:22;12.20;;;7.30;;
82646;SDS011;72325;41.910;22.404;2024-03-23T03:40:48;19.13;;;8.75;;
82646;SDS011;72325;41.910;22.404;2024-03-23T03:43:14;21.70;;;10.65;;
82646;SDS011;72325;41.910;22.404;2024-03-23T03:45:40;18.05;;;9.60;;
82646;SDS011;72325;41.910;22.404;2024-03-23T03:48:07;23.63;;;11.00;;
82646;SDS011;72325;41.910;22.404;2024-03-23T03:50:33;21.10;;;11.07;;
82646;SDS011;72325;41.910;22.404;2024-03-23T03:52:59;12.00;;;7.22;;
82646;SDS011;72325;41.910;22.404;2024-03-23T03:55:25;10.88;;;5.75;;
82646;SDS011;72325;41.910;22.404;2024-03-23T03:57:51;13.23;;;7.80;;
82646;SDS011;72325;41.910;22.404;2024-03-23T04:00:17;17.98;;;8.63;;
82646;SDS011;72325;41.910;22.404;2024-03-23T04:02:43;15.82;;;8.55;;
82646;SDS011;72325;41.910;22.404;2024-03-23T04:05:09;16.00;;;8.07;;
82646;SDS011;72325;41.910;22.404;2024-03-23T04:07:35;15.73;;;8.30;;
82646;SDS011;72325;41.910;22.404;2024-03-23T04:10:01;13.80;;;7.03;;
82646;SDS011;72325;41.910;22.404;2024-03-23T04:12:32;11.77;;;6.57;;
82646;SDS011;72325;41.910;22.404;2024-03-23T04:14:58;13.32;;;6.78;;
82646;SDS011;72325;41.910;22.404;2024-03-23T04:17:24;14.02;;;6.97;;
82646;SDS011;72325;41.910;22.404;2024-03-23T04:19:51;11.40;;;6.45;;
82646;SDS011;72325;41.910;22.404;2024-03-23T04:22:17;9.70;;;5.57;;
82646;SDS011;72325;41.910;22.404;2024-03-23T04:24:43;10.95;;;6.28;;
82646;SDS011;72325;41.910;22.404;2024-03-23T04:27:09;15.27;;;7.97;;
82646;SDS011;72325;41.910;22.404;2024-03-23T04:29:35;15.88;;;7.80;;
82646;SDS011;72325;41.910;22.404;2024-03-23T04:32:02;14.35;;;7.75;;
82646;SDS011;72325;41.910;22.404;2024-03-23T04:34:28;19.13;;;9.13;;
82646;SDS011;72325;41.910;22.404;2024-03-23T04:36:54;20.55;;;7.15;;
82646;SDS011;72325;41.910;22.404;2024-03-23T04:39:20;16.13;;;8.70;;
82646;SDS011;72325;41.910;22.404;2024-03-23T04:41:46;17.27;;;8.40;;
82646;SDS011;72325;41.910;22.404;2024-03-23T04:44:12;9.73;;;6.80;;
82646;SDS011;72325;41.910;22.404;2024-03-23T04:46:38;13.13;;;6.88;;
82646;SDS011;72325;41.910;22.404;2024-03-23T04:49:05;11.65;;;6.78;;
82646;SDS011;72325;41.910;22.404;2024-03-23T04:51:35;11.75;;;6.93;;
82646;SDS011;72325;41.910;22.404;2024-03-23T04:54:04;9.10;;;6.75;;
82646;SDS011;72325;41.910;22.404;2024-03-23T04:56:31;10.38;;;5.75;;
82646;SDS011;72325;41.910;22.404;2024-03-23T04:58:57;10.43;;;5.95;;
82646;SDS011;72325;41.910;22.404;2024-03-23T05:01:27;9.65;;;5.25;;
82646;SDS011;72325;41.910;22.404;2024-03-23T05:03:53;12.00;;;6.38;;
82646;SDS011;72325;41.910;22.404;2024-03-23T05:06:19;12.75;;;6.85;;
82646;SDS011;72325;41.910;22.404;2024-03-23T05:08:45;13.07;;;6.65;;
82646;SDS011;72325;41.910;22.404;2024-03-23T05:11:12;14.27;;;7.63;;
82646;SDS011;72325;41.910;22.404;2024-03-23T05:13:38;13.32;;;7.10;;
82646;SDS011;72325;41.910;22.404;2024-03-23T05:16:04;10.75;;;5.72;;
82646;SDS011;72325;41.910;22.404;2024-03-23T05:18:30;13.30;;;6.53;;
82646;SDS011;72325;41.910;22.404;2024-03-23T05:20:57;13.75;;;7.00;;
82646;SDS011;72325;41.910;22.404;2024-03-23T05:23:23;12.88;;;7.50;;
82646;SDS011;72325;41.910;22.404;2024-03-23T05:25:49;11.43;;;6.35;;
82646;SDS011;72325;41.910;22.404;2024-03-23T05:31:27;12.38;;;5.90;;
82646;SDS011;72325;41.910;22.404;2024-03-23T05:33:53;11.25;;;6.57;;
82646;SDS011;72325;41.910;22.404;2024-03-23T05:36:20;10.40;;;6.43;;
82646;SDS011;72325;41.910;22.404;2024-03-23T05:38:46;9.65;;;5.95;;
82646;SDS011;72325;41.910;22.404;2024-03-23T05:41:13;9.65;;;6.38;;
82646;SDS011;72325;41.910;22.404;2024-03-23T05:43:39;9.70;;;5.95;;
82646;SDS011;72325;41.910;22.404;2024-03-23T05:46:05;12.15;;;6.82;;
82646;SDS011;72325;41.910;22.404;2024-03-23T05:48:32;11.90;;;6.47;;
82646;SDS011;72325;41.910;22.404;2024-03-23T05:50:58;11.48;;;6.50;;
82646;SDS011;72325;41.910;22.404;2024-03-23T05:53:25;10.88;;;6.40;;
82646;SDS011;72325;41.910;22.404;2024-03-23T05:55:51;12.50;;;6.90;;
82646;SDS011;72325;41.910;22.404;2024-03-23T06:01:22;12.18;;;7.07;;
82646;SDS011;72325;41.910;22.404;2024-03-23T06:03:48;10.70;;;6.50;;
82646;SDS011;72325;41.910;22.404;2024-03-23T06:06:15;12.00;;;7.53;;
82646;SDS011;72325;41.910;22.404;2024-03-23T06:08:41;12.25;;;7.50;;
82646;SDS011;72325;41.910;22.404;2024-03-23T06:11:07;14.10;;;8.48;;
82646;SDS011;72325;41.910;22.404;2024-03-23T06:13:33;14.43;;;8.60;;
82646;SDS011;72325;41.910;22.404;2024-03-23T06:16:00;11.48;;;7.78;;
82646;SDS011;72325;41.910;22.404;2024-03-23T06:18:26;11.98;;;7.70;;
82646;SDS011;72325;41.910;22.404;2024-03-23T06:20:53;10.73;;;6.28;;
82646;SDS011;72325;41.910;22.404;2024-03-23T06:23:20;12.48;;;8.23;;
82646;SDS011;72325;41.910;22.404;2024-03-23T06:25:46;9.90;;;6.95;;
82646;SDS011;72325;41.910;22.404;2024-03-23T06:31:16;10.10;;;6.50;;
82646;SDS011;72325;41.910;22.404;2024-03-23T06:33:43;10.23;;;6.47;;
82646;SDS011;72325;41.910;22.404;2024-03-23T06:36:09;10.88;;;7.88;;
82646;SDS011;72325;41.910;22.404;2024-03-23T06:38:36;10.98;;;7.22;;
82646;SDS011;72325;41.910;22.404;2024-03-23T06:41:03;11.48;;;7.18;;
82646;SDS011;72325;41.910;22.404;2024-03-23T06:46:33;8.68;;;6.28;;
82646;SDS011;72325;41.910;22.404;2024-03-23T06:48:59;10.52;;;6.85;;
82646;SDS011;72325;41.910;22.404;2024-03-23T06:51:25;11.27;;;7.13;;
82646;SDS011;72325;41.910;22.404;2024-03-23T06:53:51;9.30;;;6.43;;
82646;SDS011;72325;41.910;22.404;2024-03-23T06:56:17;9.48;;;6.15;;
82646;SDS011;72325;41.910;22.404;2024-03-23T06:58:43;9.48;;;5.68;;
82646;SDS011;72325;41.910;22.404;2024-03-23T07:01:09;10.63;;;7.10;;
82646;SDS011;72325;41.910;22.404;2024-03-23T07:03:36;10.65;;;6.47;;
82646;SDS011;72325;41.910;22.404;2024-03-23T07:06:02;7.68;;;5.88;;
82646;SDS011;72325;41.910;22.404;2024-03-23T07:08:28;9.65;;;7.07;;
82646;SDS011;72325;41.910;22.404;2024-03-23T07:10:54;9.98;;;6.18;;
82646;SDS011;72325;41.910;22.404;2024-03-23T07:16:24;9.13;;;6.60;;
82646;SDS011;72325;41.910;22.404;2024-03-23T07:18:52;9.88;;;6.65;;
82646;SDS011;72325;41.910;22.404;2024-03-23T07:21:18;8.95;;;6.75;;
82646;SDS011;72325;41.910;22.404;2024-03-23T07:23:45;8.30;;;6.32;;
82646;SDS011;72325;41.910;22.404;2024-03-23T07:26:12;10.40;;;5.78;;
82646;SDS011;72325;41.910;22.404;2024-03-23T07:28:38;9.32;;;6.28;;
82646;SDS011;72325;41.910;22.404;2024-03-23T07:31:09;9.18;;;6.38;;
82646;SDS011;72325;41.910;22.404;2024-03-23T07:33:45;11.48;;;7.28;;
82646;SDS011;72325;41.910;22.404;2024-03-23T07:36:12;10.18;;;7.05;;
82646;SDS011;72325;41.910;22.404;2024-03-23T07:38:41;9.60;;;6.43;;
82646;SDS011;72325;41.910;22.404;2024-03-23T07:46:37;9.00;;;6.32;;
82646;SDS011;72325;41.910;22.404;2024-03-23T07:49:06;11.32;;;6.72;;
82646;SDS011;72325;41.910;22.404;2024-03-23T07:51:32;10.55;;;7.40;;
82646;SDS011;72325;41.910;22.404;2024-03-23T07:54:00;9.18;;;5.82;;
82646;SDS011;72325;41.910;22.404;2024-03-23T07:56:27;9.93;;;5.38;;
82646;SDS011;72325;41.910;22.404;2024-03-23T07:58:53;10.65;;;6.28;;
82646;SDS011;72325;41.910;22.404;2024-03-23T08:01:19;11.13;;;6.10;;
82646;SDS011;72325;41.910;22.404;2024-03-23T08:03:45;8.70;;;6.00;;
82646;SDS011;72325;41.910;22.404;2024-03-23T08:06:21;8.57;;;6.47;;
82646;SDS011;72325;41.910;22.404;2024-03-23T08:08:54;10.25;;;6.57;;
82646;SDS011;72325;41.910;22.404;2024-03-23T08:11:30;11.82;;;7.43;;
82646;SDS011;72325;41.910;22.404;2024-03-23T08:13:57;9.68;;;6.80;;
82646;SDS011;72325;41.910;22.404;2024-03-23T08:16:23;10.15;;;7.03;;
82646;SDS011;72325;41.910;22.404;2024-03-23T08:18:52;13.07;;;7.40;;
82646;SDS011;72325;41.910;22.404;2024-03-23T08:21:18;8.95;;;6.80;;
82646;SDS011;72325;41.910;22.404;2024-03-23T08:23:45;10.82;;;6.97;;
82646;SDS011;72325;41.910;22.404;2024-03-23T08:26:11;10.55;;;6.43;;
82646;SDS011;72325;41.910;22.404;2024-03-23T08:31:41;9.63;;;6.03;;
82646;SDS011;72325;41.910;22.404;2024-03-23T08:34:07;9.57;;;7.70;;
82646;SDS011;72325;41.910;22.404;2024-03-23T08:36:33;12.82;;;7.15;;
82646;SDS011;72325;41.910;22.404;2024-03-23T08:38:59;12.00;;;8.25;;
82646;SDS011;72325;41.910;22.404;2024-03-23T08:41:25;9.82;;;6.30;;
82646;SDS011;72325;41.910;22.404;2024-03-23T08:43:51;8.27;;;5.50;;
82646;SDS011;72325;41.910;22.404;2024-03-23T08:46:17;10.77;;;6.90;;
82646;SDS011;72325;41.910;22.404;2024-03-23T08:48:44;8.45;;;5.82;;
82646;SDS011;72325;41.910;22.404;2024-03-23T08:51:11;9.98;;;6.65;;
82646;SDS011;72325;41.910;22.404;2024-03-23T08:53:38;7.40;;;5.47;;
82646;SDS011;72325;41.910;22.404;2024-03-23T08:56:04;9.27;;;6.53;;
82646;SDS011;72325;41.910;22.404;2024-03-23T09:01:37;10.50;;;6.22;;
82646;SDS011;72325;41.910;22.404;2024-03-23T09:04:03;9.57;;;6.80;;
82646;SDS011;72325;41.910;22.404;2024-03-23T09:06:29;8.82;;;5.80;;
82646;SDS011;72325;41.910;22.404;2024-03-23T09:08:56;11.55;;;6.90;;
82646;SDS011;72325;41.910;22.404;2024-03-23T09:11:22;10.15;;;6.55;;
82646;SDS011;72325;41.910;22.404;2024-03-23T09:16:51;11.63;;;7.35;;
82646;SDS011;72325;41.910;22.404;2024-03-23T09:19:17;10.77;;;6.63;;
82646;SDS011;72325;41.910;22.404;2024-03-23T09:21:43;10.98;;;6.85;;
82646;SDS011;72325;41.910;22.404;2024-03-23T09:24:10;11.05;;;8.02;;
82646;SDS011;72325;41.910;22.404;2024-03-23T09:26:36;12.25;;;8.63;;
82646;SDS011;72325;41.910;22.404;2024-03-23T09:29:02;10.68;;;6.82;;
82646;SDS011;72325;41.910;22.404;2024-03-23T09:31:29;11.52;;;6.85;;
82646;SDS011;72325;41.910;22.404;2024-03-23T09:33:56;10.52;;;7.05;;
82646;SDS011;72325;41.910;22.404;2024-03-23T09:36:22;10.40;;;7.20;;
82646;SDS011;72325;41.910;22.404;2024-03-23T09:38:48;11.30;;;7.25;;
82646;SDS011;72325;41.910;22.404;2024-03-23T09:41:15;15.57;;;10.57;;
82646;SDS011;72325;41.910;22.404;2024-03-23T09:46:44;14.35;;;7.63;;
82646;SDS011;72325;41.910;22.404;2024-03-23T09:49:10;11.65;;;7.10;;
82646;SDS011;72325;41.910;22.404;2024-03-23T09:51:36;9.95;;;6.43;;
82646;SDS011;72325;41.910;22.404;2024-03-23T09:54:02;9.95;;;6.13;;
82646;SDS011;72325;41.910;22.404;2024-03-23T09:56:28;8.00;;;4.90;;
82646;SDS011;72325;41.910;22.404;2024-03-23T10:01:58;10.10;;;6.43;;
82646;SDS011;72325;41.910;22.404;2024-03-23T10:07:20;7.80;;;6.05;;
82646;SDS011;72325;41.910;22.404;2024-03-23T10:09:49;8.65;;;5.63;;
82646;SDS011;72325;41.910;22.404;2024-03-23T10:12:19;8.63;;;5.50;;
82646;SDS011;72325;41.910;22.404;2024-03-23T10:14:45;8.98;;;5.60;;
82646;SDS011;72325;41.910;22.404;2024-03-23T10:19:43;8.05;;;5.18;;
82646;SDS011;72325;41.910;22.404;2024-03-23T10:22:09;7.63;;;5.40;;
82646;SDS011;72325;41.910;22.404;2024-03-23T10:24:36;9.75;;;6.32;;
82646;SDS011;72325;41.910;22.404;2024-03-23T10:27:02;6.07;;;3.85;;
82646;SDS011;72325;41.910;22.404;2024-03-23T10:29:28;7.50;;;5.05;;
82646;SDS011;72325;41.910;22.404;2024-03-23T10:31:55;8.48;;;5.90;;
82646;SDS011;72325;41.910;22.404;2024-03-23T10:34:25;8.52;;;5.85;;
82646;SDS011;72325;41.910;22.404;2024-03-23T10:36:53;8.88;;;5.63;;
82646;SDS011;72325;41.910;22.404;2024-03-23T10:39:20;8.23;;;5.75;;
82646;SDS011;72325;41.910;22.404;2024-03-23T10:41:48;8.40;;;5.80;;
82646;SDS011;72325;41.910;22.404;2024-03-23T10:44:16;8.00;;;5.93;;
82646;SDS011;72325;41.910;22.404;2024-03-23T10:46:42;10.85;;;6.40;;
82646;SDS011;72325;41.910;22.404;2024-03-23T10:49:09;8.45;;;5.57;;
82646;SDS011;72325;41.910;22.404;2024-03-23T10:51:35;8.73;;;5.78;;
82646;SDS011;72325;41.910;22.404;2024-03-23T10:54:02;7.72;;;5.38;;
82646;SDS011;72325;41.910;22.404;2024-03-23T10:56:31;6.25;;;4.60;;
82646;SDS011;72325;41.910;22.404;2024-03-23T11:02:03;6.32;;;4.57;;
82646;SDS011;72325;41.910;22.404;2024-03-23T11:04:29;9.20;;;4.97;;
82646;SDS011;72325;41.910;22.404;2024-03-23T11:06:56;8.43;;;5.78;;
82646;SDS011;72325;41.910;22.404;2024-03-23T11:12:15;8.30;;;5.78;;
82646;SDS011;72325;41.910;22.404;2024-03-23T11:14:43;8.02;;;5.72;;
82646;SDS011;72325;41.910;22.404;2024-03-23T11:17:10;7.22;;;5.03;;
82646;SDS011;72325;41.910;22.404;2024-03-23T11:19:37;8.48;;;6.15;;
82646;SDS011;72325;41.910;22.404;2024-03-23T11:22:03;6.95;;;5.25;;
82646;SDS011;72325;41.910;22.404;2024-03-23T11:24:33;9.52;;;6.50;;
82646;SDS011;72325;41.910;22.404;2024-03-23T11:27:02;8.27;;;5.53;;
82646;SDS011;72325;41.910;22.404;2024-03-23T11:29:29;8.77;;;5.43;;
82646;SDS011;72325;41.910;22.404;2024-03-23T11:31:55;7.55;;;5.38;;
82646;SDS011;72325;41.910;22.404;2024-03-23T11:34:21;8.30;;;5.60;;
82646;SDS011;72325;41.910;22.404;2024-03-23T11:36:48;8.30;;;5.20;;
82646;SDS011;72325;41.910;22.404;2024-03-23T11:39:18;7.25;;;3.60;;
82646;SDS011;72325;41.910;22.404;2024-03-23T11:48:07;15.68;;;7.20;;
82646;SDS011;72325;41.910;22.404;2024-03-23T11:50:34;7.57;;;4.80;;
82646;SDS011;72325;41.910;22.404;2024-03-23T11:53:13;6.85;;;4.63;;
82646;SDS011;72325;41.910;22.404;2024-03-23T11:55:47;8.27;;;6.05;;
82646;SDS011;72325;41.910;22.404;2024-03-23T11:58:14;10.88;;;6.43;;
82646;SDS011;72325;41.910;22.404;2024-03-23T12:00:41;8.60;;;5.93;;
82646;SDS011;72325;41.910;22.404;2024-03-23T12:03:07;7.22;;;5.50;;
82646;SDS011;72325;41.910;22.404;2024-03-23T12:05:35;8.05;;;5.18;;
82646;SDS011;72325;41.910;22.404;2024-03-23T12:08:17;9.30;;;5.90;;
82646;SDS011;72325;41.910;22.404;2024-03-23T12:10:52;9.07;;;6.18;;
82646;SDS011;72325;41.910;22.404;2024-03-23T12:13:19;8.35;;;5.75;;
82646;SDS011;72325;41.910;22.404;2024-03-23T12:15:46;7.22;;;5.32;;
82646;SDS011;72325;41.910;22.404;2024-03-23T12:18:12;9.13;;;6.07;;
82646;SDS011;72325;41.910;22.404;2024-03-23T12:20:39;7.05;;;5.18;;
82646;SDS011;72325;41.910;22.404;2024-03-23T12:23:05;6.60;;;4.18;;
82646;SDS011;72325;41.910;22.404;2024-03-23T12:25:32;7.90;;;5.15;;
82646;SDS011;72325;41.910;22.404;2024-03-23T12:28:01;9.10;;;6.10;;
82646;SDS011;72325;41.910;22.404;2024-03-23T12:30:27;8.48;;;5.93;;
82646;SDS011;72325;41.910;22.404;2024-03-23T12:32:53;6.38;;;4.30;;
82646;SDS011;72325;41.910;22.404;2024-03-23T12:35:19;7.70;;;4.72;;
82646;SDS011;72325;41.910;22.404;2024-03-23T12:37:46;6.82;;;4.55;;
82646;SDS011;72325;41.910;22.404;2024-03-23T12:40:12;7.72;;;5.93;;
82646;SDS011;72325;41.910;22.404;2024-03-23T12:42:38;7.57;;;4.60;;
82646;SDS011;72325;41.910;22.404;2024-03-23T12:45:04;5.25;;;3.22;;
82646;SDS011;72325;41.910;22.404;2024-03-23T12:47:30;4.80;;;3.80;;
82646;SDS011;72325;41.910;22.404;2024-03-23T12:49:56;8.68;;;4.53;;
82646;SDS011;72325;41.910;22.404;2024-03-23T12:52:22;8.43;;;5.25;;
82646;SDS011;72325;41.910;22.404;2024-03-23T12:54:53;8.98;;;6.47;;
82646;SDS011;72325;41.910;22.404;2024-03-23T12:57:21;7.25;;;4.10;;
82646;SDS011;72325;41.910;22.404;2024-03-23T12:59:47;8.63;;;4.45;;
82646;SDS011;72325;41.910;22.404;2024-03-23T13:04:41;5.28;;;3.92;;
82646;SDS011;72325;41.910;22.404;2024-03-23T13:07:07;4.95;;;3.83;;
82646;SDS011;72325;41.910;22.404;2024-03-23T13:09:33;4.50;;;2.53;;
82646;SDS011;72325;41.910;22.404;2024-03-23T13:11:59;5.25;;;3.80;;
82646;SDS011;72325;41.910;22.404;2024-03-23T13:14:26;4.85;;;3.58;;
82646;SDS011;72325;41.910;22.404;2024-03-23T13:16:52;3.95;;;2.92;;
82646;SDS011;72325;41.910;22.404;2024-03-23T13:19:18;4.53;;;3.45;;
82646;SDS011;72325;41.910;22.404;2024-03-23T13:21:45;4.78;;;3.65;;
82646;SDS011;72325;41.910;22.404;2024-03-23T13:24:11;5.63;;;3.85;;
82646;SDS011;72325;41.910;22.404;2024-03-23T13:26:37;4.45;;;2.50;;
82646;SDS011;72325;41.910;22.404;2024-03-23T13:32:06;6.03;;;3.42;;
82646;SDS011;72325;41.910;22.404;2024-03-23T13:34:33;4.72;;;3.00;;
82646;SDS011;72325;41.910;22.404;2024-03-23T13:37:00;5.55;;;3.15;;
82646;SDS011;72325;41.910;22.404;2024-03-23T13:39:26;4.13;;;3.05;;
82646;SDS011;72325;41.910;22.404;2024-03-23T13:41:52;4.03;;;3.30;;
82646;SDS011;72325;41.910;22.404;2024-03-23T13:47:24;5.40;;;3.92;;
82646;SDS011;72325;41.910;22.404;2024-03-23T13:49:50;6.70;;;3.75;;
82646;SDS011;72325;41.910;22.404;2024-03-23T13:52:16;5.10;;;3.28;;
82646;SDS011;72325;41.910;22.404;2024-03-23T13:54:47;6.47;;;3.17;;
82646;SDS011;72325;41.910;22.404;2024-03-23T13:57:13;4.95;;;3.60;;
82646;SDS011;72325;41.910;22.404;2024-03-23T13:59:40;3.75;;;2.67;;
82646;SDS011;72325;41.910;22.404;2024-03-23T14:02:06;4.10;;;2.50;;
82646;SDS011;72325;41.910;22.404;2024-03-23T14:04:32;3.80;;;2.17;;
82646;SDS011;72325;41.910;22.404;2024-03-23T14:06:58;2.85;;;1.65;;
82646;SDS011;72325;41.910;22.404;2024-03-23T14:09:24;2.03;;;1.30;;
82646;SDS011;72325;41.910;22.404;2024-03-23T14:11:50;2.00;;;0.98;;
82646;SDS011;72325;41.910;22.404;2024-03-23T14:17:20;3.22;;;1.30;;
82646;SDS011;72325;41.910;22.404;2024-03-23T14:19:46;4.55;;;2.20;;
82646;SDS011;72325;41.910;22.404;2024-03-23T14:22:12;4.35;;;2.63;;
82646;SDS011;72325;41.910;22.404;2024-03-23T14:24:38;2.90;;;1.58;;
82646;SDS011;72325;41.910;22.404;2024-03-23T14:27:04;2.75;;;1.83;;
82646;SDS011;72325;41.910;22.404;2024-03-23T14:32:35;6.40;;;3.17;;
82646;SDS011;72325;41.910;22.404;2024-03-23T14:35:02;2.55;;;1.70;;
82646;SDS011;72325;41.910;22.404;2024-03-23T14:37:29;2.67;;;1.63;;
82646;SDS011;72325;41.910;22.404;2024-03-23T14:39:58;3.75;;;1.80;;
82646;SDS011;72325;41.910;22.404;2024-03-23T14:42:24;3.95;;;2.60;;
82646;SDS011;72325;41.910;22.404;2024-03-23T14:44:51;3.53;;;2.40;;
82646;SDS011;72325;41.910;22.404;2024-03-23T14:47:18;4.32;;;1.95;;
82646;SDS011;72325;41.910;22.404;2024-03-23T14:49:44;4.78;;;3.03;;
82646;SDS011;72325;41.910;22.404;2024-03-23T14:52:15;5.78;;;3.88;;
82646;SDS011;72325;41.910;22.404;2024-03-23T14:54:41;5.93;;;3.95;;
82646;SDS011;72325;41.910;22.404;2024-03-23T14:57:07;4.47;;;3.20;;
82646;SDS011;72325;41.910;22.404;2024-03-23T15:02:37;6.07;;;3.10;;
82646;SDS011;72325;41.910;22.404;2024-03-23T15:05:04;6.65;;;3.78;;
82646;SDS011;72325;41.910;22.404;2024-03-23T15:09:58;5.45;;;2.60;;
82646;SDS011;72325;41.910;22.404;2024-03-23T15:12:24;4.32;;;2.10;;
82646;SDS011;72325;41.910;22.404;2024-03-23T15:14:50;4.60;;;2.90;;
82646;SDS011;72325;41.910;22.404;2024-03-23T15:17:17;5.07;;;2.50;;
82646;SDS011;72325;41.910;22.404;2024-03-23T15:19:43;4.30;;;2.80;;
82646;SDS011;72325;41.910;22.404;2024-03-23T15:22:09;4.60;;;2.45;;
82646;SDS011;72325;41.910;22.404;2024-03-23T15:24:35;6.82;;;3.50;;
82646;SDS011;72325;41.910;22.404;2024-03-23T15:27:05;7.22;;;3.25;;
82646;SDS011;72325;41.910;22.404;2024-03-23T15:32:37;5.25;;;3.60;;
82646;SDS011;72325;41.910;22.404;2024-03-23T15:35:04;4.88;;;3.53;;
82646;SDS011;72325;41.910;22.404;2024-03-23T15:37:32;7.32;;;4.95;;
82646;SDS011;72325;41.910;22.404;2024-03-23T15:39:59;8.60;;;4.30;;
82646;SDS011;72325;41.910;22.404;2024-03-23T15:42:25;8.88;;;4.57;;
82646;SDS011;72325;41.910;22.404;2024-03-23T15:44:51;7.40;;;4.30;;
82646;SDS011;72325;41.910;22.404;2024-03-23T15:47:18;4.57;;;3.10;;
82646;SDS011;72325;41.910;22.404;2024-03-23T15:49:44;8.10;;;3.30;;
82646;SDS011;72325;41.910;22.404;2024-03-23T15:52:10;6.22;;;3.75;;
82646;SDS011;72325;41.910;22.404;2024-03-23T15:54:36;5.28;;;3.95;;
82646;SDS011;72325;41.910;22.404;2024-03-23T15:57:02;5.05;;;3.05;;
82646;SDS011;72325;41.910;22.404;2024-03-23T16:02:31;6.72;;;3.33;;
82646;SDS011;72325;41.910;22.404;2024-03-23T16:04:57;5.30;;;3.38;;
82646;SDS011;72325;41.910;22.404;2024-03-23T16:07:28;3.40;;;2.67;;
82646;SDS011;72325;41.910;22.404;2024-03-23T16:09:54;5.43;;;3.00;;
82646;SDS011;72325;41.910;22.404;2024-03-23T16:12:20;4.03;;;3.30;;
82646;SDS011;72325;41.910;22.404;2024-03-23T16:17:50;5.57;;;4.70;;
82646;SDS011;72325;41.910;22.404;2024-03-23T16:20:16;9.90;;;6.82;;
82646;SDS011;72325;41.910;22.404;2024-03-23T16:22:43;16.42;;;9.13;;
82646;SDS011;72325;41.910;22.404;2024-03-23T16:25:09;22.50;;;14.18;;
82646;SDS011;72325;41.910;22.404;2024-03-23T16:27:35;29.83;;;16.55;;
82646;SDS011;72325;41.910;22.404;2024-03-23T16:30:01;27.35;;;15.93;;
82646;SDS011;72325;41.910;22.404;2024-03-23T16:32:27;24.23;;;14.45;;
82646;SDS011;72325;41.910;22.404;2024-03-23T16:34:54;21.52;;;12.05;;
82646;SDS011;72325;41.910;22.404;2024-03-23T16:37:20;12.23;;;7.45;;
82646;SDS011;72325;41.910;22.404;2024-03-23T16:39:47;7.90;;;5.25;;
82646;SDS011;72325;41.910;22.404;2024-03-23T16:42:13;9.70;;;5.55;;
82646;SDS011;72325;41.910;22.404;2024-03-23T16:47:42;11.93;;;7.40;;
82646;SDS011;72325;41.910;22.404;2024-03-23T16:50:10;27.75;;;18.63;;
82646;SDS011;72325;41.910;22.404;2024-03-23T16:52:36;18.20;;;11.60;;
82646;SDS011;72325;41.910;22.404;2024-03-23T16:55:04;14.50;;;9.25;;
82646;SDS011;72325;41.910;22.404;2024-03-23T16:57:30;15.15;;;10.25;;
82646;SDS011;72325;41.910;22.404;2024-03-23T16:59:57;26.15;;;15.25;;
82646;SDS011;72325;41.910;22.404;2024-03-23T17:02:23;22.35;;;14.57;;
82646;SDS011;72325;41.910;22.404;2024-03-23T17:04:49;11.57;;;7.75;;
82646;SDS011;72325;41.910;22.404;2024-03-23T17:07:15;11.23;;;7.30;;